Reza Mohammadi

Olheiro-Chefe - Esteghlal
3 Dez 2028
Domingo
Processo

Personalidade

Adaptabilidade (17) Ambição (11) Controvérsia (14) Lealdade (6) Pressão (9) Profissionalismo (1) Espírito Esportivo (10) Temperamento (2)

Perfil

Estilo de Treinamento Democrático
Licença Continental C
Determinação 6
Gestão de Pessoas 8
Motivação 4
Disciplina 12
Satisfação no Trabalho
100%
Fadiga
0%
Função Olheiro-Chefe
Salário 95.8K p/s
Contrato 14.03.2029

Desempenho

Comportamento Bom
Eficácia do Treinamento
40%
Desenvolvimento do Jogador
25%
Prevenção de Lesões
40%
Implementação Tática
65%

Eventos Recentes

Participou de uma reunião de recrutamento 7d atrás
Recomendou um alvo de transferência 7d atrás
Participou de uma reunião de recrutamento 14d atrás
Recomendou um alvo de transferência 14d atrás
Participou de uma reunião de recrutamento 21d atrás
Recomendou um alvo de transferência 21d atrás
Participou de uma reunião de recrutamento 28d atrás
Recomendou um alvo de transferência 28d atrás

Monitorando agora

290
Jogador Clube Status Habilidade Confiança Observado Última observação Último voto
Marcelo Jorquera Sepahan Ativo 105 / 96 79% 1 07.08.2028 Aprovar
Álvaro Busso Vélez Ativo 118 / 112 40% 1 01.08.2028 -
Bark Abdramane AS PSI Ativo 91 / 89 40% 1 01.08.2028 -
Mohammad Mehdi Mohebi Persepolis Perdido 127 / 113 79% 1 31.07.2028 -
Aref Haji Eydi Sepahan Perdido 111 / 114 79% 1 10.07.2028 -
Jan Bürger Northampton Town Ativo 126 / 137 40% 2 26.06.2028 -
Josh Nichols Oldham Athletic Ativo 126 / 134 40% 12 26.06.2028 -
Mehdi Noorafkan Padideh Ativo 91 / 98 40% 1 26.06.2028 -
Honest Ahanor Atalanta Ativo 135 / 148 40% 6 12.06.2028 -
Giovanni Leoni Lincoln City Rejeitado 143 / 155 40% 2 12.06.2028 Mais informações
Tyler Fletcher Rotherham United Ativo 113 / 112 40% 9 06.06.2028 -
Morteza Torabi Malavan Negociando 100 / 117 40% 1 06.06.2028 -
Bernardo Lima Porto Ativo 110 / 122 40% 2 31.05.2028 -
Ibrahim Fullah Charlton Athletic Ativo 123 / 135 40% 9 30.05.2028 -
Ryan McAidoo Oldham Athletic Ativo 121 / 132 40% 11 30.05.2028 -
Gabriel Mec Feirense Ativo 132 / 140 40% 7 29.05.2028 -
Jake Evans Crewe Alexandra Ativo 112 / 128 40% 7 28.05.2028 -
Ben Broggio Mansfield Town Ativo 113 / 123 40% 7 28.05.2028 -
Leo Pecover Swindon Town Ativo 100 / 117 40% 8 28.05.2028 -
Oskar Pietuszewski Estrela da Amadora Ativo 130 / 126 40% 5 27.05.2028 -
Alphadjo Cissé Lecce Ativo 135 / 131 40% 3 27.05.2028 -
Ryan Kavuma-McQueen Accrington Stanley Ativo 117 / 125 40% 10 25.05.2028 -
Kerim Alajbegović Modena Ativo 133 / 135 40% 3 24.05.2028 -
Shea Lacey Crystal Palace Ativo 137 / 141 40% 3 24.05.2028 -
Jorthy Mokio ADO Den Haag Ativo 132 / 139 40% 1 24.05.2028 -
Simone Suppa Virtus Verona Ativo 87 / 84 40% 1 21.05.2028 -
Babis Kostoulas Oxford United Ativo 142 / 142 40% 7 20.05.2028 -
Eli Junior Kroupi Bournemouth Ativo 143 / 160 40% 17 20.05.2028 -
Christos Mouzakitis Hull City Ativo 139 / 135 40% 4 19.05.2028 -
Rio Ngumoha Plymouth Argyle Ativo 138 / 141 40% 5 19.05.2028 -
Andrea Cogoni Cosenza Ativo 110 / 109 40% 1 18.05.2028 -
Luca Williams-Barnett Walsall Ativo 123 / 135 40% 8 15.05.2028 -
Igor Tyjon Barrow AFC Ativo 118 / 127 40% 10 13.05.2028 -
Fletcher Boyd Accrington Stanley Ativo 100 / 104 40% 1 11.05.2028 -
Siyabonga Mabena Bidvest Wits Ativo 122 / 129 40% 19 08.05.2028 -
Luca Meirelles Kudrivka Ativo 126 / 138 40% 8 05.05.2028 -
Amin Nabizada Exeter City Ativo 111 / 116 40% 4 02.05.2028 -
Romelle Donovan Brentford Ativo 129 / 139 40% 2 02.05.2028 -
Oscar Schwartau Norwich City Ativo 129 / 133 40% 2 30.04.2028 -
Daniel Banjaqui Benfica Ativo 127 / 127 40% 1 28.04.2028 -
Gabe Forsyth Colchester United Ativo 108 / 108 40% 5 24.04.2028 -
André Miranda Porto Ativo 115 / 127 40% 3 23.04.2028 -
Omar Khedr Gillingham Ativo 110 / 118 40% 4 20.04.2028 -
Josh Acheampong Everton Ativo 139 / 152 40% 4 16.04.2028 -
Henrique Carmo Sochi Ativo 123 / 125 40% 2 06.04.2028 -
Trey Nyoni Rotherham United Ativo 133 / 148 40% 3 22.03.2028 -
Nana Nuhu WAFA Ativo 96 / 110 40% 3 19.03.2028 -
Alejo Antilef Saipa Rejeitado 122 / 127 72% 1 17.01.2028 Rejeitar
Tiziano Delias Sarmiento Ativo 101 / 87 40% 2 01.01.2028 -
Nikita Dovnar Niva Ativo 71 / 100 40% 1 01.01.2028 -
Jayden Danns Bradford City Ativo 137 / 145 40% 3 30.12.2027 -
Joshua Ajala Walsall Ativo 96 / 111 40% 1 30.12.2027 -
Stanley Amon Bayelsa United Ativo 93 / 101 40% 3 29.12.2027 -
Facundo Rodríguez Talleres Ativo 87 / 111 40% 1 29.12.2027 -
Dylan Cabral Arsenal Ativo 112 / 124 40% 11 28.12.2027 -
Artur Kozyrev Volna Ativo 93 / 88 40% 2 27.12.2027 -
Maren Kefas Plateau United Ativo 90 / 88 40% 12 25.12.2027 -
Luighi Palmeiras Ativo 115 / 107 40% 6 25.12.2027 -
Dániel Pintér Inter Miami CF Ativo 87 / 111 40% 5 23.12.2027 -
Abolfazl Zadehattar Saipa Ativo 115 / 125 40% 1 21.12.2027 -
Luka Andrade Montevideo City Torque Ativo 106 / 102 40% 11 19.12.2027 -
Rafael Moreno Atletico Venezuela Ativo 118 / 97 40% 7 15.12.2027 -
Julian Hall Real Salt Lake Ativo 94 / 98 40% 3 15.12.2027 -
Sindre Walle Egeli Udinese Ativo 140 / 143 40% 1 14.12.2027 -
Ruben Ramos LA Galaxy Ativo 99 / 93 40% 8 12.12.2027 -
Daniel Johan Skaarud Sandefjord Ativo 113 / 122 40% 4 10.12.2027 -
Senny Mayulu Paris Saint-Germain Ativo 151 / 143 40% 1 07.12.2027 -
Julián Bragado Morón Ativo 84 / 97 40% 2 06.12.2027 -
Joseph Abah Remo Stars Ativo 81 / 99 40% 3 06.12.2027 -
Idris Ajiya Nasarawa United Ativo 79 / 93 40% 4 04.12.2027 -
Tiago Pucciarelli IF Elfsborg Ativo 107 / 87 40% 4 04.12.2027 -
Omar Bautista Gerez Central Córdoba SdE Ativo 86 / 84 40% 2 30.11.2027 -
Ramiro Buratti River Plate Ativo 85 / 98 40% 1 27.11.2027 -
Jack Wint Sibenik Ativo 108 / 95 40% 1 27.11.2027 -
Juan Rodríguez Cerro Largo Ativo 86 / 119 40% 2 25.11.2027 -
Amaury Morales Leon Ativo 121 / 116 40% 2 23.11.2027 -
Elion Krosa Odd Ativo 97 / 106 40% 1 18.11.2027 -
Kevin Filling AIK Ativo 105 / 131 40% 1 17.11.2027 -
Yegor Koshkin Pobeda Ativo 82 / 87 40% 1 16.11.2027 -
Emiliano Zacca Deportivo Riestra Ativo 95 / 97 40% 2 15.11.2027 -
Tobías Pantoja Central Norte Ativo 91 / 109 40% 1 15.11.2027 -
Martín Almeida Montevideo City Torque Ativo 98 / 101 40% 1 15.11.2027 -
Hassan Beja AFC Leopards Ativo 96 / 103 40% 5 12.11.2027 -
Mateus Mané Burnley Ativo 138 / 150 40% 1 12.11.2027 -
Luis Yanes Real Cartagena Ativo 102 / 92 40% 1 06.11.2027 -
Miloš Luković RC Strasbourg Ativo 126 / 135 40% 2 05.11.2027 -
Naphtali Mokoena Bloemfontein Celtic Ativo 95 / 123 40% 1 05.11.2027 -
Alex Verón Vélez Ativo 124 / 122 40% 2 10.10.2027 -
Nicolás Barros Schelotto Gimnasia La Plata Ativo 111 / 143 40% 2 10.10.2027 -
Mateo Peralta Danubio Ativo 109 / 130 40% 2 09.10.2027 -
Matias Siltanen Malmo FF Ativo 114 / 149 40% 2 09.10.2027 -
Giovanni Baroni Talleres Ativo 118 / 115 40% 1 08.10.2027 -
Ben Gannon Doak Charlton Athletic Ativo 151 / 161 40% 2 07.10.2027 -
Abubakar Garba Nasarawa United Ativo 93 / 93 40% 6 06.10.2027 -
Mustapha Umar Kano Pillars Ativo 92 / 82 40% 1 06.10.2027 -
Wisdom Udom Bendel Insurance Ativo 89 / 97 40% 1 05.10.2027 -
Joel Ezra Enyimba Ativo 89 / 94 40% 2 03.10.2027 -
Emmanuel Ndubueze Shooting Stars Ativo 91 / 108 40% 5 02.10.2027 -
Jeremías Merlo Gimnasia La Plata Ativo 131 / 129 40% 2 01.10.2027 -
Abdoulaye Allamine Stars Jeunes Talents Ativo 76 / 81 40% 1 01.10.2027 -
Alex Amaefula Kun Khalifat Ativo 84 / 76 40% 3 29.09.2027 -
Nupe Godstime Bayelsa United Ativo 83 / 86 40% 3 29.09.2027 -
Abdulrahman Hamisu Niger Tornadoes Ativo 89 / 92 40% 1 28.09.2027 -
Didier Dawson Envigado Ativo 108 / 106 40% 1 27.09.2027 -
Matías Arias Vélez Ativo 115 / 112 40% 3 18.09.2027 -
Victor Hernandez Santa Fe Ativo 114 / 142 40% 1 18.09.2027 -
Chimobi Igwilo Rangers International Ativo 83 / 93 40% 1 14.09.2027 -
Lucas Camejo River Plate Ativo 86 / 91 40% 1 13.09.2027 -
David Eke Enyimba Ativo 85 / 103 40% 1 07.09.2027 -
Wandile Duba ASO Chlef Ativo 100 / 91 40% 1 30.08.2027 -
Kamaldeen Essien Liberty Professionals Ativo 116 / 123 40% 1 30.08.2027 -
Alejo Dramisino Atlanta Ativo 110 / 121 40% 1 24.08.2027 -
Mitchel Bakker Modena Ativo 139 / 126 40% 1 17.08.2027 -
Thierry Rendall Correia Venezia Ativo 141 / 139 40% 1 16.08.2027 -
Martin Baturina Como Ativo 148 / 145 40% 1 16.08.2027 -
Sascha Britschgi AC Milan Ativo 125 / 120 40% 1 15.08.2027 -
Pedro de la Vega Columbus Crew Ativo 142 / 143 40% 1 10.08.2027 -
Ryoya Morishita Blackburn Rovers Ativo 126 / 123 40% 3 09.08.2027 -
Malik Mothersille Stockport County Ativo 123 / 116 40% 2 09.08.2027 -
Finn Azaz Southampton Ativo 131 / 130 40% 1 09.08.2027 -
Daniel Kyerewaa Reading Ativo 126 / 123 40% 2 08.08.2027 -
Callum O'Hare Sheffield United Ativo 130 / 137 40% 1 08.08.2027 -
Brooke Norton-Cuffy Hull City Ativo 146 / 136 40% 3 07.08.2027 -
Harry Wilson Leeds United Ativo 154 / 139 40% 1 07.08.2027 -
Joe Gelhardt Hull City Ativo 141 / 139 40% 1 06.08.2027 -
Tatsuhiro Sakamoto Coventry City Ativo 126 / 140 40% 1 06.08.2027 -
Max Bird Birmingham Ativo 142 / 128 40% 11 05.08.2027 -
Cian Ashford Cardiff City Ativo 125 / 133 40% 1 05.08.2027 -
Isaiah Jones Luton Town Ativo 124 / 134 40% 1 04.08.2027 -
Giacomo Raspadori Atalanta Ativo 147 / 147 40% 1 04.08.2027 -
Samuel Edozie Southampton Ativo 136 / 119 40% 3 03.08.2027 -
Ali Ahmed Norwich City Ativo 125 / 128 40% 1 03.08.2027 -
Marcus McGuane Huddersfield Town Ativo 125 / 132 40% 3 02.08.2027 -
Radinio Balker Huddersfield Town Ativo 127 / 120 40% 5 02.08.2027 -
Ethan Williams Peterborough United Ativo 119 / 122 40% 2 02.08.2027 -
Hector Kyprianou Watford Ativo 123 / 121 40% 2 02.08.2027 -
Stevan Manuel Benfica Ativo 97 / 107 40% 1 02.08.2027 -
Harry Clarke Preston Ativo 134 / 135 40% 5 01.08.2027 -
Hidemasa Morita Hull City Ativo 144 / 154 40% 9 31.07.2027 -
Bosun Lawal Stoke City Ativo 132 / 128 40% 4 31.07.2027 -
Max Conway Bolton Wanderers Ativo 126 / 115 40% 1 31.07.2027 -
Tyrese Campbell Sheffield United Ativo 134 / 131 40% 1 31.07.2027 -
Tomáš Rigo Stoke City Ativo 130 / 138 40% 1 31.07.2027 -
Scott Twine Bristol City Ativo 125 / 135 40% 1 30.07.2027 -
Shea Charles Southampton Ativo 141 / 135 40% 6 29.07.2027 -
Terry Devlin Portsmouth Ativo 123 / 114 40% 3 29.07.2027 -
Ronnie Edwards Queens Park Rangers Ativo 133 / 124 40% 1 29.07.2027 -
Lloyd Jones Charlton Athletic Ativo 131 / 141 40% 1 27.07.2027 -
Jacques Ekomié Wrexham Ativo 130 / 125 40% 3 26.07.2027 -
Harrison Burrows Sheffield United Ativo 137 / 123 40% 2 26.07.2027 -
João Abreu Porto Ativo 96 / 112 40% 1 26.07.2027 -
Calum Agius Crewe Alexandra Ativo 94 / 112 40% 1 26.07.2027 -
Dennis Cirkin Queens Park Rangers Ativo 135 / 130 40% 8 25.07.2027 -
Ethan Pye Stockport County Ativo 126 / 124 40% 5 24.07.2027 -
Derry Murkin Derby County Ativo 132 / 131 40% 3 24.07.2027 -
Matt Clarke Derby County Ativo 130 / 134 40% 2 24.07.2027 -
Mikey Johnston West Bromwich Albion Ativo 129 / 113 40% 1 24.07.2027 -
Jack Diamond Stockport County Ativo 117 / 110 40% 1 23.07.2027 -
David Turnbull Cardiff City Ativo 126 / 129 40% 1 23.07.2027 -
Luke McNally Bristol City Ativo 132 / 128 40% 6 21.07.2027 -
Tariq Lamptey Queens Park Rangers Ativo 138 / 125 40% 2 20.07.2027 -
Othmane Maamma Watford Ativo 129 / 134 40% 2 20.07.2027 -
Nestory Irankunda Watford Ativo 130 / 132 40% 1 20.07.2027 -
Asanele Bonani Chippa United Ativo 103 / 84 40% 1 20.07.2027 -
Welington Southampton Ativo 142 / 136 40% 5 19.07.2027 -
Andy Rinomhota Reading Ativo 120 / 117 40% 4 19.07.2027 -
Chris Mepham West Bromwich Albion Ativo 131 / 130 40% 2 18.07.2027 -
Araphat Mohammed Ashanti Gold Ativo 102 / 107 40% 1 18.07.2027 -
Will Fish Cardiff City Ativo 126 / 131 40% 1 18.07.2027 -
Ben Nelson Leicester City Ativo 132 / 130 40% 1 17.07.2027 -
Aidan Morris Middlesbrough Ativo 139 / 138 40% 4 15.07.2027 -
Max Johnston Derby County Ativo 131 / 124 40% 6 12.07.2027 -
Alfie Gilchrist West Bromwich Albion Ativo 125 / 122 40% 1 12.07.2027 -
Jack Currie Oxford United Ativo 124 / 121 40% 7 07.07.2027 -
Japhet Tanganga Sheffield United Ativo 141 / 135 40% 2 07.07.2027 -
Michael Baidoo Plymouth Argyle Ativo 136 / 119 40% 1 06.07.2027 -
Lisandro Tejada San Martín SJ Ativo 91 / 77 40% 2 21.06.2027 -
Giovanni Stellato Guidonia Montecelio Ativo 84 / 100 40% 1 21.06.2027 -
Lewis Bate Stockport County Ativo 130 / 120 40% 2 20.06.2027 -
Alfie Doughty Millwall Ativo 124 / 123 40% 3 15.06.2027 -
Sorba Thomas Stoke City Ativo 131 / 141 40% 1 31.05.2027 -
Milan van Ewijk Coventry City Ativo 126 / 136 40% 3 24.05.2027 -
Toby Collyer West Bromwich Albion Ativo 132 / 143 40% 4 22.05.2027 -
Perry Ng Cardiff City Ativo 123 / 113 40% 1 20.05.2027 -
Dara O'Shea Ipswich Town Ativo 142 / 135 40% 6 19.05.2027 -
Callum Brittain Middlesbrough Ativo 128 / 135 40% 4 18.05.2027 -
Habib Diarra Sunderland Ativo 139 / 153 40% 4 09.05.2027 -
Lewis Gibson Preston Ativo 129 / 128 40% 2 05.05.2027 -
Florentino Luís Ipswich Town Ativo 135 / 152 40% 4 03.05.2027 -
Lucas Da Cunha Como Ativo 145 / 139 40% 3 03.05.2027 -
Tom Hamer Lincoln City Ativo 119 / 103 40% 1 30.04.2027 -
Morgan Billiat SuperSport United Ativo 134 / 100 40% 8 19.04.2027 -
Hamza Choudhury Leicester City Ativo 129 / 128 40% 1 18.04.2027 -
Pelle Mattsson Norwich City Ativo 125 / 133 40% 1 17.04.2027 -
Jacob Greaves Ipswich Town Ativo 140 / 134 40% 5 16.04.2027 -
Azor Matusiwa Ipswich Town Ativo 136 / 136 40% 4 15.04.2027 -
Oliver Skipp Leicester City Ativo 136 / 140 40% 4 14.04.2027 -
Adam Randell Bristol City Ativo 130 / 119 40% 2 14.04.2027 -
Brian De Keersmaecker Oxford United Ativo 130 / 117 40% 1 14.04.2027 -
Joel Bagan Cardiff City Ativo 120 / 110 40% 4 13.04.2027 -
Toti Wolverhampton Ativo 129 / 143 40% 1 27.03.2027 -
Connor Ogilvie Grimsby Town Ativo 109 / 121 40% 1 27.03.2027 -
Igor Burnley Ativo 142 / 141 40% 1 26.03.2027 -
Lewis O'Brien Wrexham Ativo 119 / 123 40% 1 25.03.2027 -
Marc Bola Watford Ativo 126 / 130 40% 1 19.03.2027 -
Alfie Jones Middlesbrough Ativo 130 / 122 40% 1 12.03.2027 -
Deano Van Rooyen SuperSport United Ativo 122 / 96 40% 8 04.03.2027 -
Fawaaz Basadien Mamelodi Sundowns Ativo 122 / 109 40% 1 02.03.2027 -
Tomáš Souček West Ham United Ativo 132 / 140 40% 1 26.02.2027 -
Jordan Lotomba Bloemfontein Celtic Ativo 124 / 115 40% 3 20.02.2027 -
Tibor Halilović Tractor Ativo 122 / 110 40% 2 18.02.2027 -
Will Hughes Bloemfontein Celtic Ativo 135 / 115 40% 3 18.02.2027 -
Kaveh Mohammadi Gostaresh Foulad Ativo 126 / 107 40% 1 18.02.2027 -
Teboho Mokoena Mamelodi Sundowns Ativo 125 / 127 40% 4 17.02.2027 -
Álvaro Medrán Al-Ettifaq Ativo 127 / 115 40% 2 17.02.2027 -
João Cancelo Spartak Moscow Rejeitado 144 / 143 40% 4 13.02.2027 Rejeitar
Gedson Fernandes Spartak Moscow Ativo 139 / 149 40% 1 13.02.2027 -
Leeroy Owusu Hearts of Oak Ativo 111 / 109 40% 1 13.02.2027 -
Álex Centelles Levski Ativo 138 / 125 40% 3 12.02.2027 -
Igor Postonjski Tractor Ativo 128 / 120 40% 1 12.02.2027 -
Son Ludogorets Ativo 115 / 135 40% 1 11.02.2027 -
Billy Gilmour Napoli Ativo 147 / 152 40% 1 11.02.2027 -
Khuliso Mudau Mamelodi Sundowns Ativo 123 / 120 40% 1 09.02.2027 -
Thalente Mbatha Orlando Pirates Ativo 126 / 99 40% 1 05.02.2027 -
Milad Zakipour Tractor Ativo 105 / 120 40% 2 04.02.2027 -
Aldair Faustino Levski Ativo 114 / 131 40% 2 02.02.2027 -
Wilfried Kanga Al-Fateh Ativo 126 / 119 40% 1 25.01.2027 -
Mohammad Hosseini Malavan Ativo 120 / 128 40% 1 25.01.2027 -
Saeid Pouraliganji Rah Ahan Rejeitado 118 / 107 40% 1 11.01.2027 -
Amir Hossein Hosseinzadeh Tractor Ativo 124 / 118 40% 4 01.01.2027 -
Bradley Zwane SuperSport United Ativo 121 / 127 40% 7 31.12.2026 -
Oston O'runov Persepolis Ativo 130 / 122 40% 8 31.12.2026 -
Marquinhos Spartak Moscow Ativo 136 / 107 40% 2 31.12.2026 -
Steven Bergwijn Al-Ittihad Ativo 146 / 158 40% 3 30.12.2026 -
Milad Yazdani Siah Jamegan Ativo 125 / 117 40% 5 28.12.2026 -
Oswin Appollis Orlando Pirates Ativo 112 / 136 40% 8 25.12.2026 -
Zoltan Kleinheisler Haladas Ativo 95 / 85 40% 2 24.12.2026 -
Thiago Perruisset Boca Juniors Ativo 88 / 92 40% 1 24.12.2026 -
Bongani Zungu Ajax Cape Town Ativo 130 / 114 40% 2 19.12.2026 -
Armstrong Oko-Flex Levski Ativo 116 / 127 40% 1 19.12.2026 -
Marcelo Allende Mamelodi Sundowns Ativo 136 / 125 40% 6 18.12.2026 -
Oscar Al-Taawoun Ativo 150 / 131 40% 2 18.12.2026 -
Ikenna Nkwazema FC Diarra Ativo 73 / 88 40% 1 15.12.2026 -
Manu Morlanes Mallorca Ativo 135 / 131 40% 1 15.12.2026 -
Dion Lopy Al-Ittihad Ativo 121 / 143 40% 1 15.12.2026 -
Domagoj Drožđek Tractor Ativo 126 / 121 40% 5 13.12.2026 -
Petar Stanić Ludogorets Ativo 148 / 123 40% 1 11.12.2026 -
Lebogang Manyama SuperSport United Ativo 104 / 110 40% 2 04.12.2026 -
Mandla Kekana Ajax Cape Town Ativo 108 / 110 40% 1 04.12.2026 -
Marko Grujić Levski Ativo 130 / 117 40% 1 04.12.2026 -
Odiljon Hamrobekov Tractor Ativo 122 / 113 40% 2 30.11.2026 -
Douglas Augusto Krasnodar Ativo 142 / 140 40% 1 30.11.2026 -
Edu Expósito Espanyol Ativo 139 / 128 40% 6 25.11.2026 -
Alexandr Chernikov Krasnodar Ativo 132 / 153 40% 1 23.11.2026 -
Óscar Al-Diriyah Ativo 127 / 129 40% 1 22.11.2026 -
Reda Khadra Qarabag Ativo 132 / 149 40% 3 12.11.2026 -
Lucas Souto Defensa y Justicia Ativo 121 / 107 40% 2 09.11.2026 -
Jakub Badžgoň MSK Zilina Ativo 93 / 109 40% 1 06.11.2026 -
Jens Petter Hauge Bodo/Glimt Ativo 131 / 142 40% 3 31.10.2026 -
Mariano Bracamonte Deportivo Riestra Ativo 109 / 116 40% 1 30.10.2026 -
Lisandro Musso Central Córdoba SdE Ativo 76 / 112 40% 1 20.10.2026 -
Camilo Salamanca Unión de Santa Fe Ativo 91 / 94 40% 1 15.10.2026 -
Renato Ardissono San Lorenzo Ativo 73 / 99 40% 1 15.10.2026 -
Favour Bala Plateau United Ativo 83 / 76 40% 1 13.10.2026 -
Agustín Albrini Independiente Rivadavia Ativo 93 / 119 40% 1 13.10.2026 -
Franco Cristaldo Talleres Ativo 139 / 108 40% 2 09.10.2026 -
Bernard Tekpetey Ludogorets Ativo 117 / 121 40% 1 04.10.2026 -
Felipe Igón Racing Club Ativo 79 / 94 40% 1 04.10.2026 -
Biola Sabitu Remo Stars Ativo 97 / 107 40% 1 03.10.2026 -
Luis Mateus Atletico Bucaramanga Ativo 84 / 101 40% 1 29.09.2026 -
Agustín Ayala Gimnasia La Plata Ativo 84 / 66 40% 1 29.09.2026 -
Brian Orosco Godoy Cruz Ativo 110 / 110 40% 2 25.09.2026 -
Patrick Maswanganyi Orlando Pirates Ativo 111 / 126 40% 1 24.09.2026 -
Imran Oulad Omar Dinamo Batumi Ativo 128 / 100 40% 2 20.09.2026 -
Jonathan Levi Ferencvaros Ativo 114 / 142 40% 1 19.09.2026 -
Matías Pellegrini Vélez Ativo 126 / 137 40% 1 19.09.2026 -
Maxim De Cuyper Brighton Ativo 134 / 138 40% 1 17.09.2026 -
James Wright Oxford United Ativo 75 / 100 40% 1 17.09.2026 -
Jerónimo Gutiérrez Independiente Rivadavia Ativo 81 / 70 40% 1 14.09.2026 -
Franco Yennerich Talleres Ativo 88 / 96 40% 1 13.09.2026 -
Pedro Silva Torrejón Gimnasia La Plata Ativo 122 / 140 40% 1 10.09.2026 -
Ramiro Ruiz Rodríguez Atlético Tucumán Ativo 122 / 106 40% 1 09.09.2026 -
Ignacio Coscio Huracán Ativo 87 / 111 40% 1 09.09.2026 -
Ezequiel Zapata Rosario Central Ativo 88 / 75 40% 1 07.09.2026 -
Francisco Mongelos Sportivo Luqueno Ativo 95 / 96 40% 1 07.09.2026 -
Enzo Gramajo Vélez Ativo 72 / 78 40% 1 05.09.2026 -
Keanu Cupido Mamelodi Sundowns Ativo 127 / 123 40% 1 31.08.2026 -
Juan Camilo Pérez Carabobo Ativo 112 / 134 40% 1 19.08.2026 -
Renzo Garcés Alianza Lima Ativo 109 / 105 40% 1 05.08.2026 -
Dwight McNeil Crystal Palace Ativo 133 / 138 40% 1 01.08.2026 -